Maritime Instructor — WCW8625 — position and weather

sailwx.info

Track history (hours):
 
Tides and Currents Weather Stations Pressure Air Temp Water Temp Dewpoint Dewpoint Depression Visibility Wind Speed Wind Dir Waves Ship Positions

Maritime Instructor

Owner: WASHINGTON, STATE OF, SEATTLE, WA. More information available from US FCC via Universal Licensing System and Coast Guard Vessel Documentation Center.

Last reported at 2017-May-24 09:59 UTC. Time now 2017-May-24 10:09 UTC.
Position N 47°40' W 122°23'.

Length 30 m; draft 2 m.

Type: Ship. MMSI: 303556000.

Date/timePositionNaut miles runAvg speedWind from/ knotsBaromVisibWave heightAir tempDewpointWater temp
2017-May-24 09:59N 47°40' W 122°23'0 0.0
2017-May-24 09:29N 47°40' W 122°23'0 0.0
2017-May-24 08:59N 47°40' W 122°23'0 0.0
2017-May-24 08:29N 47°40' W 122°23'0 0.0
2017-May-24 07:59N 47°40' W 122°23'0 0.0
2017-May-24 07:29N 47°40' W 122°23'0 0.0
2017-May-24 06:59N 47°40' W 122°23'0 0.0
2017-May-24 06:29N 47°40' W 122°23'0 0.0
2017-May-24 05:59N 47°40' W 122°23'0 0.0
2017-May-24 05:29N 47°40' W 122°23'0 0.0
2017-May-24 04:59N 47°40' W 122°23'0 0.0
2017-May-24 04:29N 47°40' W 122°23'0 0.0
2017-May-24 03:59N 47°40' W 122°23'0 0.0
2017-May-24 03:29N 47°40' W 122°23'0 0.0
2017-May-24 03:00N 47°40' W 122°23'0 0.0
2017-May-24 02:29N 47°40' W 122°23'0 0.0
2017-May-24 01:59N 47°40' W 122°23'0 0.0
2017-May-24 01:29N 47°40' W 122°23'0 0.0
2017-May-24 01:00N 47°40' W 122°23'0 0.3
2017-May-24 00:30N 47°40' W 122°23'1 2.8
2017-May-24 00:00N 47°40' W 122°24'4 7.4
2017-May-23 23:30N 47°44' W 122°24'0 0.6
2017-May-23 23:00N 47°44' W 122°25'4 7.3
2017-May-23 22:30N 47°44' W 122°30'2 3.0
2017-May-23 21:59N 47°44' W 122°32'0 0.1
2017-May-23 21:23N 47°45' W 122°32'0 0.0
2017-May-23 20:59N 47°45' W 122°32'0 0.0
2017-May-23 20:29N 47°45' W 122°32'0 0.1
2017-May-23 19:59N 47°45' W 122°32'0 0.0
2017-May-23 19:29N 47°45' W 122°32'0 0.0
2017-May-23 18:59N 47°45' W 122°32'0 0.0
2017-May-23 18:29N 47°45' W 122°32'0 0.1
2017-May-23 17:59N 47°45' W 122°32'0 0.0
2017-May-23 17:30N 47°45' W 122°32'4 8.1
2017-May-23 17:00N 47°42' W 122°27'3 6.1
2017-May-23 16:30N 47°40' W 122°24'1 1.7
2017-May-23 16:00N 47°40' W 122°23'0 0.2
2017-May-23 15:29N 47°40' W 122°23'0 0.0
2017-May-23 15:00N 47°40' W 122°23'0 0.0
2017-May-23 14:00N 47°40' W 122°23'0 0.0
2017-May-23 13:30N 47°40' W 122°23'0 0.0
2017-May-23 13:00N 47°40' W 122°23'0 0.0
2017-May-23 12:30N 47°40' W 122°23'0 0.0
2017-May-23 12:00N 47°40' W 122°23'0 0.0
2017-May-23 11:30N 47°40' W 122°23'0 0.0
2017-May-23 11:00N 47°40' W 122°23'0 0.0
2017-May-23 10:30N 47°40' W 122°23'0 0.0
2017-May-23 10:00N 47°40' W 122°23'0 0.0
2017-May-23 09:30N 47°40' W 122°23'0 0.0
2017-May-23 09:00N 47°40' W 122°23'0 0.0
2017-May-23 08:30N 47°40' W 122°23'0 0.0
2017-May-23 08:00N 47°40' W 122°23'0 0.0
2017-May-23 07:30N 47°40' W 122°23'0 0.0
2017-May-23 07:00N 47°40' W 122°23'0 0.0
2017-May-23 06:30N 47°40' W 122°23'0 0.0
2017-May-23 06:00N 47°40' W 122°23'0 0.0
2017-May-23 05:30N 47°40' W 122°23'0 0.0
2017-May-23 04:57N 47°40' W 122°23'0 0.0
2017-May-23 04:30N 47°40' W 122°23'0 0.0
2017-May-23 04:00N 47°40' W 122°23'0 0.0
2017-May-23 03:30N 47°40' W 122°23'0 0.0
2017-May-23 03:00N 47°40' W 122°23'0 0.0
2017-May-23 02:30N 47°40' W 122°23'0 0.0
2017-May-23 02:00N 47°40' W 122°23'0 0.0
2017-May-23 01:30N 47°40' W 122°23'0 0.0
2017-May-23 01:00N 47°40' W 122°23'0 0.0
2017-May-23 00:30N 47°40' W 122°23'0 0.0
2017-May-23 00:00N 47°40' W 122°23'0 0.0
2017-May-22 23:24N 47°40' W 122°23'0 0.0
2017-May-22 22:57N 47°40' W 122°23'0 0.0
2017-May-22 22:30N 47°40' W 122°23'0 0.0
2017-May-22 22:00N 47°40' W 122°23'0 0.0
2017-May-22 21:30N 47°40' W 122°23'0 0.0
2017-May-22 21:00N 47°40' W 122°23'0 0.0
2017-May-22 20:30N 47°40' W 122°23'0 0.0
2017-May-22 20:00N 47°40' W 122°23'0 0.0
2017-May-22 19:30N 47°40' W 122°23'0 0.0
2017-May-22 19:00N 47°40' W 122°23'0 0.0
2017-May-22 18:30N 47°40' W 122°23'0 0.0
2017-May-22 18:00N 47°40' W 122°23'0 0.0
2017-May-22 17:27N 47°40' W 122°23'0 0.0
2017-May-22 17:00N 47°40' W 122°23'0 0.0
2017-May-22 16:30N 47°40' W 122°23'0 0.0
2017-May-22 16:00N 47°40' W 122°23'0 0.0
2017-May-22 15:30N 47°40' W 122°23'0 0.0
2017-May-22 15:00N 47°40' W 122°23'0 0.0
2017-May-22 14:00N 47°40' W 122°23'0 0.0
2017-May-22 13:30N 47°40' W 122°23'0 0.0
2017-May-22 13:00N 47°40' W 122°23'0 0.0
2017-May-22 12:30N 47°40' W 122°23'0 0.0
2017-May-22 12:00N 47°40' W 122°23'0 0.0
2017-May-22 11:30N 47°40' W 122°23'0 0.0
2017-May-22 11:00N 47°40' W 122°23'0 0.0
2017-May-22 10:30N 47°40' W 122°23'0 0.0
2017-May-22 10:00N 47°40' W 122°23'0 0.0
2017-May-22 09:30N 47°40' W 122°23'0 0.0
2017-May-22 09:00N 47°40' W 122°23'0 0.0
2017-May-22 08:30N 47°40' W 122°23'0 0.0
2017-May-22 07:54N 47°40' W 122°23'0 0.0
2017-May-22 07:30N 47°40' W 122°23'0 0.0
2017-May-22 07:00N 47°40' W 122°23'0 0.0
2017-May-22 06:30N 47°40' W 122°23'0 0.0
2017-May-22 06:00N 47°40' W 122°23'0 0.0
2017-May-22 05:30N 47°40' W 122°23'0 0.0
2017-May-22 05:00N 47°40' W 122°23'0 0.0
2017-May-22 04:30N 47°40' W 122°23'0 0.0
2017-May-22 04:00N 47°40' W 122°23'0 0.0
2017-May-22 03:30N 47°40' W 122°23'0 0.0
2017-May-22 03:00N 47°40' W 122°23'0 0.0
2017-May-22 02:30N 47°40' W 122°23'0 0.0
2017-May-22 02:00N 47°40' W 122°23'0 0.0
2017-May-22 01:30N 47°40' W 122°23'0 0.0
2017-May-22 01:00N 47°40' W 122°23'0 0.0
2017-May-22 00:30N 47°40' W 122°23'0 0.0
2017-May-22 00:00N 47°40' W 122°23'0 0.0
2017-May-21 23:30N 47°40' W 122°23'0 0.0
2017-May-21 23:00N 47°40' W 122°23'0 0.0
2017-May-21 22:30N 47°40' W 122°23'0 0.0
2017-May-21 22:00N 47°40' W 122°23'0 0.0
2017-May-21 21:30N 47°40' W 122°23'0 0.0
2017-May-21 21:00N 47°40' W 122°23'0 0.0
2017-May-21 20:30N 47°40' W 122°23'0 0.0
2017-May-21 20:00N 47°40' W 122°23'0 0.0
2017-May-21 19:30N 47°40' W 122°23'0 0.0
2017-May-21 19:00N 47°40' W 122°23'0 0.0
2017-May-21 18:30N 47°40' W 122°23'0 0.0
2017-May-21 18:00N 47°40' W 122°23'0 0.0
2017-May-21 17:30N 47°40' W 122°23'0 0.0
2017-May-21 17:00N 47°40' W 122°23'0 0.0
2017-May-21 16:30N 47°40' W 122°23'0 0.0
2017-May-21 16:00N 47°40' W 122°23'0 0.0
2017-May-21 15:30N 47°40' W 122°23'0 0.0
2017-May-21 14:57N 47°40' W 122°23'0 0.0
2017-May-21 14:30N 47°40' W 122°23'0 0.0
2017-May-21 13:30N 47°40' W 122°23'0 0.0
2017-May-21 12:57N 47°40' W 122°23'0 0.0
2017-May-21 12:30N 47°40' W 122°23'0 0.0
2017-May-21 12:00N 47°40' W 122°23'0 0.0
2017-May-21 11:27N 47°40' W 122°23'0 0.0
2017-May-21 11:00N 47°40' W 122°23'0 0.0
2017-May-21 10:30N 47°40' W 122°23'0 0.0
2017-May-21 10:00N 47°40' W 122°23'0 0.0
2017-May-21 09:30N 47°40' W 122°23'0 0.0
2017-May-21 09:00N 47°40' W 122°23'0 0.0
2017-May-21 08:30N 47°40' W 122°23'0 0.0
2017-May-21 08:00N 47°40' W 122°23'0 0.0
2017-May-21 07:30N 47°40' W 122°23'0 0.0
2017-May-21 06:54N 47°40' W 122°23'0 0.0
2017-May-21 06:30N 47°40' W 122°23'0 0.0
2017-May-21 06:00N 47°40' W 122°23'0 0.0
2017-May-21 05:30N 47°40' W 122°23'0 0.0
2017-May-21 05:00N 47°40' W 122°23'0 0.0
2017-May-21 04:30N 47°40' W 122°23'0 0.0
2017-May-21 04:00N 47°40' W 122°23'0 0.0
2017-May-21 03:30N 47°40' W 122°23'0 0.0
2017-May-21 03:00N 47°40' W 122°23'0 0.0
2017-May-21 02:30N 47°40' W 122°23'0 0.0
2017-May-21 02:00N 47°40' W 122°23'0 0.0
2017-May-21 01:30N 47°40' W 122°23'0 0.0
2017-May-21 01:00N 47°40' W 122°23'0 0.0
2017-May-21 00:27N 47°40' W 122°23'0 0.0
2017-May-21 00:00N 47°40' W 122°23'0 0.0
2017-May-20 23:30N 47°40' W 122°23'0 0.0
2017-May-20 23:00N 47°40' W 122°23'0 0.0
2017-May-20 22:30N 47°40' W 122°23'0 0.0
2017-May-20 22:00N 47°40' W 122°23'0 0.0
2017-May-20 21:30N 47°40' W 122°23'0 0.0
2017-May-20 21:00N 47°40' W 122°23'0 0.0
2017-May-20 20:30N 47°40' W 122°23'0 0.0
2017-May-20 20:00N 47°40' W 122°23'0 0.0
2017-May-20 19:30N 47°40' W 122°23'0 0.0
2017-May-20 19:00N 47°40' W 122°23'0 0.0
2017-May-20 18:30N 47°40' W 122°23'0 0.0
2017-May-20 18:00N 47°40' W 122°23'0 0.0
2017-May-20 17:30N 47°40' W 122°23'0 0.0
2017-May-20 17:00N 47°40' W 122°23'0 0.0
2017-May-20 16:30N 47°40' W 122°23'0 0.0
2017-May-20 16:00N 47°40' W 122°23'0 0.0
2017-May-20 15:30N 47°40' W 122°23'0 0.0
2017-May-20 15:00N 47°40' W 122°23'0 0.0
2017-May-20 14:30N 47°40' W 122°23'0 0.0
2017-May-20 13:30N 47°40' W 122°23'0 0.0
2017-May-20 13:00N 47°40' W 122°23'0 0.0
2017-May-20 12:30N 47°40' W 122°23'0 0.0
2017-May-20 12:00N 47°40' W 122°23'0 0.0
2017-May-20 11:30N 47°40' W 122°23'0 0.0
2017-May-20 11:00N 47°40' W 122°23'0 0.0
2017-May-20 10:30N 47°40' W 122°23'0 0.0
2017-May-20 10:00N 47°40' W 122°23'0 0.0
2017-May-20 09:30N 47°40' W 122°23'0 0.0
2017-May-20 09:00N 47°40' W 122°23'0 0.0
2017-May-20 08:30N 47°40' W 122°23'0 0.0
2017-May-20 08:00N 47°40' W 122°23'0 0.0
2017-May-20 07:30N 47°40' W 122°23'0 0.0
2017-May-20 07:00N 47°40' W 122°23'0 0.0
2017-May-20 06:30N 47°40' W 122°23'0 0.0
2017-May-20 06:00N 47°40' W 122°23'0 0.0
2017-May-20 05:30N 47°40' W 122°23'0 0.0
2017-May-20 05:00N 47°40' W 122°23'0 0.0
2017-May-20 04:30N 47°40' W 122°23'0 0.0
2017-May-20 04:00N 47°40' W 122°23'0 0.0
2017-May-20 03:30N 47°40' W 122°23'0 0.0
2017-May-20 03:00N 47°40' W 122°23'0 0.0
2017-May-20 02:30N 47°40' W 122°23'0 0.0
2017-May-20 02:00N 47°40' W 122°23'0 0.0
2017-May-20 01:30N 47°40' W 122°23'0 0.0
2017-May-20 01:00N 47°40' W 122°23'0 0.0
2017-May-20 00:30N 47°40' W 122°23'0 0.0
2017-May-20 00:00N 47°40' W 122°23'0 0.0
2017-May-19 23:30N 47°40' W 122°23'0 0.0
2017-May-19 23:00N 47°40' W 122°23'0 0.0
2017-May-19 22:30N 47°40' W 122°23'0 0.0
2017-May-19 22:00N 47°40' W 122°23'0 0.0
2017-May-19 21:24N 47°40' W 122°23'0 0.0
2017-May-19 21:00N 47°40' W 122°23'0 0.0
2017-May-19 20:30N 47°40' W 122°23'0 0.0
2017-May-19 20:00N 47°40' W 122°23'0 0.0
2017-May-19 19:30N 47°40' W 122°23'0 0.0
2017-May-19 19:00N 47°40' W 122°23'0 0.0
2017-May-19 18:30N 47°40' W 122°23'0 0.0
2017-May-19 18:00N 47°40' W 122°23'0 0.0
2017-May-19 17:30N 47°40' W 122°23'0 0.0
2017-May-19 17:00N 47°40' W 122°23'0 0.0
2017-May-19 16:27N 47°40' W 122°23'0 0.0
2017-May-19 16:00N 47°40' W 122°23'0 0.0
2017-May-19 15:30N 47°40' W 122°23'0 0.0
2017-May-19 15:00N 47°40' W 122°23'0 0.0
2017-May-19 14:00N 47°40' W 122°23'0 0.0
2017-May-19 13:30N 47°40' W 122°23'0 0.0
2017-May-19 13:00N 47°40' W 122°23'0 0.0
2017-May-19 12:30N 47°40' W 122°23'0 0.0
2017-May-19 12:00N 47°40' W 122°23'0 0.0
2017-May-19 11:30N 47°40' W 122°23'0 0.0
2017-May-19 11:00N 47°40' W 122°23'0 0.0
2017-May-19 10:30N 47°40' W 122°23'0 0.0
2017-May-19 10:00N 47°40' W 122°23'0 0.0
2017-May-19 09:30N 47°40' W 122°23'0 0.0
2017-May-19 09:00N 47°40' W 122°23'0 0.0
2017-May-19 08:30N 47°40' W 122°23'0 0.0
2017-May-19 08:00N 47°40' W 122°23'0 0.0
2017-May-19 07:30N 47°40' W 122°23'0 0.0
2017-May-19 06:57N 47°40' W 122°23'0 0.0
2017-May-19 06:30N 47°40' W 122°23'0 0.0
2017-May-19 06:00N 47°40' W 122°23'0 0.0
2017-May-19 05:30N 47°40' W 122°23'0 0.0
2017-May-19 05:00N 47°40' W 122°23'0 0.0
2017-May-19 04:30N 47°40' W 122°23'0 0.0
2017-May-19 04:00N 47°40' W 122°23'0 0.0
2017-May-19 03:30N 47°40' W 122°23'0 0.0
2017-May-19 03:00N 47°40' W 122°23'0 0.0
2017-May-19 02:30N 47°40' W 122°23'0 0.0
2017-May-19 02:00N 47°40' W 122°23'0 0.0
2017-May-19 01:30N 47°40' W 122°23'0 0.0
2017-May-19 01:00N 47°40' W 122°23'0 0.0
2017-May-19 00:30N 47°40' W 122°23'0 0.0
2017-May-19 00:00N 47°40' W 122°23'1 2.1
2017-May-18 23:30N 47°40' W 122°24'1 3.0
2017-May-18 23:00N 47°40' W 122°26'611.3
2017-May-18 22:30N 47°35' W 122°26'4 8.8
2017-May-18 22:00N 47°34' W 122°32'4 8.6
2017-May-18 21:29N 47°33' W 122°38'0 0.2
2017-May-18 21:00N 47°33' W 122°38'0 0.1
2017-May-18 20:30N 47°33' W 122°38'0 0.3
2017-May-18 20:00N 47°33' W 122°38'0 0.0
2017-May-18 18:22N 47°33' W 122°38'2 5.1
2017-May-18 18:01N 47°34' W 122°36'3 6.4
2017-May-18 17:31N 47°34' W 122°32'4 8.5
2017-May-18 17:00N 47°35' W 122°26'5 9.3
2017-May-18 16:30N 47°40' W 122°27'2 4.5
2017-May-18 16:00N 47°40' W 122°23'1 1.3
2017-May-18 15:29N 47°40' W 122°23'0 0.0
2017-May-18 14:59N 47°40' W 122°23'0 0.0
2017-May-18 13:58N 47°40' W 122°23'0 0.0
2017-May-18 13:28N 47°40' W 122°23'0 0.0
2017-May-18 12:58N 47°40' W 122°23'0 0.0
2017-May-18 12:28N 47°40' W 122°23'0 0.0
2017-May-18 11:58N 47°40' W 122°23'0 0.0
2017-May-18 11:28N 47°40' W 122°23'0 0.0
2017-May-18 10:58N 47°40' W 122°23'0 0.0
2017-May-18 10:28N 47°40' W 122°23'0 0.0
2017-May-18 09:58N 47°40' W 122°23'0 0.0
2017-May-18 09:28N 47°40' W 122°23'0 0.0
2017-May-18 08:58N 47°40' W 122°23'0 0.0
2017-May-18 08:28N 47°40' W 122°23'0 0.0
2017-May-18 07:58N 47°40' W 122°23'0 0.0
2017-May-18 07:28N 47°40' W 122°23'0 0.0
2017-May-18 06:58N 47°40' W 122°23'0 0.0
2017-May-18 06:28N 47°40' W 122°23'0 0.0
2017-May-18 05:58N 47°40' W 122°23'0 0.0
2017-May-18 05:28N 47°40' W 122°23'0 0.0
2017-May-18 04:58N 47°40' W 122°23'0 0.0
2017-May-18 04:28N 47°40' W 122°23'0 0.0
2017-May-18 03:58N 47°40' W 122°23'0 0.0
2017-May-18 03:28N 47°40' W 122°23'0 0.0
2017-May-18 02:58N 47°40' W 122°23'0 0.0
2017-May-18 02:28N 47°40' W 122°23'0 0.0
2017-May-18 01:58N 47°40' W 122°23'0 0.0
2017-May-18 01:28N 47°40' W 122°23'0 0.0
2017-May-18 00:58N 47°40' W 122°23'0 0.0
2017-May-18 00:28N 47°40' W 122°23'0 0.0
2017-May-17 23:58N 47°40' W 122°23'0 0.0
2017-May-17 23:28N 47°40' W 122°23'0 0.0
2017-May-17 22:58N 47°40' W 122°23'0 0.0
2017-May-17 22:28N 47°40' W 122°23'0 0.0
2017-May-17 21:58N 47°40' W 122°23'0 0.0
2017-May-17 21:28N 47°40' W 122°23'0 0.0
2017-May-17 20:58N 47°40' W 122°23'0 0.0
2017-May-17 20:28N 47°40' W 122°23'0 0.0
2017-May-17 19:58N 47°40' W 122°23'0 0.0
2017-May-17 19:28N 47°40' W 122°23'0 0.0
2017-May-17 18:58N 47°40' W 122°23'0 0.0
2017-May-17 18:25N 47°40' W 122°23'0 0.0
2017-May-17 17:58N 47°40' W 122°23'0 0.0
2017-May-17 17:28N 47°40' W 122°23'0 0.0
2017-May-17 16:58N 47°40' W 122°23'0 0.0
2017-May-17 16:28N 47°40' W 122°23'0 0.0
2017-May-17 15:58N 47°40' W 122°23'0 0.0
2017-May-17 15:28N 47°40' W 122°23'0 0.0
2017-May-17 14:58N 47°40' W 122°23'0 0.0
2017-May-17 13:58N 47°40' W 122°23'0 0.0
2017-May-17 13:28N 47°40' W 122°23'0 0.0
2017-May-17 12:55N 47°40' W 122°23'0 0.0
2017-May-17 12:19N 47°40' W 122°23'0 0.0
2017-May-17 11:55N 47°40' W 122°23'0 0.0
2017-May-17 11:25N 47°40' W 122°23'0 0.0
2017-May-17 10:55N 47°40' W 122°23'0 0.0
2017-May-17 10:25N 47°40' W 122°23'0 0.0
2017-May-17 09:58N 47°40' W 122°23'0 0.0
2017-May-17 09:28N 47°40' W 122°23'0 0.0
2017-May-17 08:58N 47°40' W 122°23'0 0.0
2017-May-17 08:28N 47°40' W 122°23'0 0.0
2017-May-17 07:55N 47°40' W 122°23'0 0.0
2017-May-17 07:25N 47°40' W 122°23'0 0.0
2017-May-17 06:55N 47°40' W 122°23'0 0.0
2017-May-17 06:28N 47°40' W 122°23'0 0.0
2017-May-17 05:58N 47°40' W 122°23'0 0.0
2017-May-17 05:25N 47°40' W 122°23'0 0.0
2017-May-17 04:52N 47°40' W 122°23'0 0.0
2017-May-17 04:28N 47°40' W 122°23'0 0.0
2017-May-17 03:58N 47°40' W 122°23'0 0.0
2017-May-17 03:28N 47°40' W 122°23'0 0.0
2017-May-17 02:58N 47°40' W 122°23'0 0.0
2017-May-17 02:28N 47°40' W 122°23'1 1.1
2017-May-17 02:00N 47°40' W 122°23'1 1.5
2017-May-17 01:30N 47°40' W 122°24'1 1.9
2017-May-17 01:00N 47°41' W 122°25'611.3
2017-May-17 00:30N 47°43' W 122°33'2 4.6
2017-May-17 00:00N 47°41' W 122°35'5 9.9
2017-May-16 23:31N 47°37' W 122°35'4 0.9
2017-May-16 18:52N 47°33' W 122°38'0 1.0
2017-May-16 18:30N 47°33' W 122°38'4 8.6
2017-May-16 18:01N 47°37' W 122°35'610.2
2017-May-16 17:25N 47°43' W 122°34'3 7.4
2017-May-16 17:01N 47°43' W 122°29'4 8.5
2017-May-16 16:30N 47°40' W 122°24'2 3.1
2017-May-16 16:00N 47°40' W 122°22'0 0.0
2017-May-16 15:30N 47°40' W 122°22'0 0.0
2017-May-16 15:00N 47°40' W 122°22'0 0.0
2017-May-16 14:30N 47°40' W 122°22'0 0.0
2017-May-16 13:30N 47°40' W 122°22'0 0.0
2017-May-16 13:00N 47°40' W 122°22'0 0.0
2017-May-16 12:30N 47°40' W 122°22'0 0.0
2017-May-16 12:00N 47°40' W 122°22'0 0.0
2017-May-16 11:30N 47°40' W 122°22'0 0.0
2017-May-16 11:00N 47°40' W 122°22'0 0.0
2017-May-16 10:30N 47°40' W 122°22'0 0.0
2017-May-16 10:00N 47°40' W 122°22'0 0.0
2017-May-16 09:30N 47°40' W 122°22'0 0.0
2017-May-16 09:00N 47°40' W 122°22'0 0.0
2017-May-16 08:30N 47°40' W 122°22'0 0.0
2017-May-16 08:00N 47°40' W 122°22'0 0.0
2017-May-16 07:30N 47°40' W 122°22'0 0.0
2017-May-16 07:00N 47°40' W 122°22'0 0.0
2017-May-16 06:30N 47°40' W 122°22'0 0.0
2017-May-16 06:00N 47°40' W 122°22'0 0.0
2017-May-16 05:30N 47°40' W 122°22'0 0.0
2017-May-16 05:00N 47°40' W 122°22'0 0.0
2017-May-16 04:30N 47°40' W 122°22'0 0.0
2017-May-16 04:00N 47°40' W 122°22'0 0.0
2017-May-16 03:30N 47°40' W 122°22'0 0.0
2017-May-16 03:00N 47°40' W 122°22'0 0.0
2017-May-16 02:30N 47°40' W 122°22'0 0.0
2017-May-16 02:00N 47°40' W 122°22'0 0.0
2017-May-16 01:30N 47°40' W 122°22'0 0.0
2017-May-16 01:00N 47°40' W 122°22'0 0.0
2017-May-16 00:30N 47°40' W 122°22'0 0.0
2017-May-16 00:00N 47°40' W 122°22'0 0.0
2017-May-15 23:30N 47°40' W 122°22'0 0.0
2017-May-15 23:00N 47°40' W 122°22'0 0.0
2017-May-15 22:30N 47°40' W 122°22'0 0.0
2017-May-15 22:00N 47°40' W 122°22'0 0.1
2017-May-15 21:30N 47°40' W 122°23'0 0.1
2017-May-15 21:00N 47°40' W 122°22'0 0.0
2017-May-15 20:30N 47°40' W 122°22'0 0.0
2017-May-15 20:00N 47°40' W 122°22'0 0.0
2017-May-15 19:30N 47°40' W 122°22'0 0.0
2017-May-15 19:00N 47°40' W 122°22'0 0.0
2017-May-15 18:30N 47°40' W 122°22'0 0.0
2017-May-15 18:00N 47°40' W 122°22'0 0.0
2017-May-15 17:30N 47°40' W 122°22'0 0.0
2017-May-15 17:00N 47°40' W 122°22'0 0.0
2017-May-15 16:30N 47°40' W 122°22'0 0.0
2017-May-15 16:00N 47°40' W 122°22'0 0.0
2017-May-15 15:30N 47°40' W 122°22'0 0.0
2017-May-15 15:00N 47°40' W 122°22'0 0.0
2017-May-15 14:00N 47°40' W 122°22'0 0.0
2017-May-15 13:30N 47°40' W 122°22'0 0.0
2017-May-15 13:00N 47°40' W 122°22'0 0.0
2017-May-15 12:30N 47°40' W 122°22'0 0.0
2017-May-15 12:00N 47°40' W 122°22'0 0.0
2017-May-15 11:30N 47°40' W 122°22'0 0.0
2017-May-15 11:00N 47°40' W 122°22'0 0.0
2017-May-15 10:30N 47°40' W 122°22'0 0.0
2017-May-15 10:00N 47°40' W 122°22'0 0.0
2017-May-15 09:30N 47°40' W 122°22'0 0.1
2017-May-15 09:00N 47°40' W 122°23'0 0.1
2017-May-15 08:30N 47°40' W 122°22'0 0.0
2017-May-15 08:00N 47°40' W 122°22'0 0.0
2017-May-15 07:30N 47°40' W 122°22'0 0.0
2017-May-15 07:00N 47°40' W 122°22'0 0.0
2017-May-15 06:30N 47°40' W 122°22'0 0.0
2017-May-15 06:00N 47°40' W 122°22'0 0.0
2017-May-15 05:30N 47°40' W 122°22'0 0.0
2017-May-15 05:00N 47°40' W 122°22'0 0.0
2017-May-15 04:30N 47°40' W 122°22'0 0.0
2017-May-15 04:00N 47°40' W 122°22'0 0.0
2017-May-15 03:30N 47°40' W 122°22'0 0.0
2017-May-15 03:00N 47°40' W 122°22'0 0.0
2017-May-15 02:30N 47°40' W 122°22'0 0.0
2017-May-15 02:00N 47°40' W 122°22'0 0.0
2017-May-15 01:30N 47°40' W 122°22'0 0.0
2017-May-15 01:00N 47°40' W 122°22'0 0.0
2017-May-15 00:30N 47°40' W 122°22'0 0.0
2017-May-15 00:00N 47°40' W 122°22'0 0.0
2017-May-14 23:30N 47°40' W 122°22'0 0.0
2017-May-14 23:00N 47°40' W 122°22'0 0.0
2017-May-14 22:30N 47°40' W 122°22'0 0.0
2017-May-14 22:00N 47°40' W 122°22'0 0.0
2017-May-14 21:30N 47°40' W 122°22'0 0.1
2017-May-14 21:00N 47°40' W 122°23'0 0.1
2017-May-14 20:30N 47°40' W 122°22'0 0.0
2017-May-14 20:00N 47°40' W 122°22'0 0.0
2017-May-14 19:30N 47°40' W 122°22'0 0.0
2017-May-14 19:00N 47°40' W 122°22'0 0.0
2017-May-14 18:30N 47°40' W 122°22'0 0.0
2017-May-14 18:00N 47°40' W 122°22'0 0.0
2017-May-14 17:30N 47°40' W 122°22'0 0.0
2017-May-14 17:00N 47°40' W 122°22'0 0.0
2017-May-14 16:30N 47°40' W 122°22'0 0.1
2017-May-14 16:00N 47°40' W 122°23'0 0.1
2017-May-14 15:30N 47°40' W 122°22'0 0.0
2017-May-14 15:00N 47°40' W 122°22'0 0.1
2017-May-14 14:30N 47°40' W 122°23'0 0.0
2017-May-14 13:30N 47°40' W 122°22'0 0.1
2017-May-14 13:01N 47°40' W 122°23'0 0.1
2017-May-14 12:30N 47°40' W 122°22'0 0.0
2017-May-14 12:00N 47°40' W 122°22'0 0.0
2017-May-14 11:30N 47°40' W 122°22'0 0.0
2017-May-14 11:00N 47°40' W 122°22'0 0.0
2017-May-14 10:30N 47°40' W 122°22'0 0.0
2017-May-14 10:00N 47°40' W 122°22'  
Track history (hours):
 
Tides and Currents Weather Stations Pressure Air Temp Water Temp Dewpoint Dewpoint Depression Visibility Wind Speed Wind Dir Waves Ship Positions

Maritime Instructor

Owner: WASHINGTON, STATE OF, SEATTLE, WA. More information available from US FCC via Universal Licensing System and Coast Guard Vessel Documentation Center.

Last reported at 2017-May-24 09:59 UTC. Time now 2017-May-24 10:09 UTC.
Position N 47°40' W 122°23'.

Length 30 m; draft 2 m.

Type: Ship. MMSI: 303556000.

Date/timePositionNaut miles runAvg speedWind from/ knotsBaromVisibWave heightAir tempDewpointWater temp
2017-May-24 09:59N 47°40' W 122°23'0 0.0
2017-May-24 09:29N 47°40' W 122°23'0 0.0
2017-May-24 08:59N 47°40' W 122°23'0 0.0
2017-May-24 08:29N 47°40' W 122°23'0 0.0
2017-May-24 07:59N 47°40' W 122°23'0 0.0
2017-May-24 07:29N 47°40' W 122°23'0 0.0
2017-May-24 06:59N 47°40' W 122°23'0 0.0
2017-May-24 06:29N 47°40' W 122°23'0 0.0
2017-May-24 05:59N 47°40' W 122°23'0 0.0
2017-May-24 05:29N 47°40' W 122°23'0 0.0
2017-May-24 04:59N 47°40' W 122°23'0 0.0
2017-May-24 04:29N 47°40' W 122°23'0 0.0
2017-May-24 03:59N 47°40' W 122°23'0 0.0
2017-May-24 03:29N 47°40' W 122°23'0 0.0
2017-May-24 03:00N 47°40' W 122°23'0 0.0
2017-May-24 02:29N 47°40' W 122°23'0 0.0
2017-May-24 01:59N 47°40' W 122°23'0 0.0
2017-May-24 01:29N 47°40' W 122°23'0 0.0
2017-May-24 01:00N 47°40' W 122°23'0 0.3
2017-May-24 00:30N 47°40' W 122°23'1 2.8
2017-May-24 00:00N 47°40' W 122°24'4 7.4
2017-May-23 23:30N 47°44' W 122°24'0 0.6
2017-May-23 23:00N 47°44' W 122°25'4 7.3
2017-May-23 22:30N 47°44' W 122°30'2 3.0
2017-May-23 21:59N 47°44' W 122°32'0 0.1
2017-May-23 21:23N 47°45' W 122°32'0 0.0
2017-May-23 20:59N 47°45' W 122°32'0 0.0
2017-May-23 20:29N 47°45' W 122°32'0 0.1
2017-May-23 19:59N 47°45' W 122°32'0 0.0
2017-May-23 19:29N 47°45' W 122°32'0 0.0
2017-May-23 18:59N 47°45' W 122°32'0 0.0
2017-May-23 18:29N 47°45' W 122°32'0 0.1
2017-May-23 17:59N 47°45' W 122°32'0 0.0
2017-May-23 17:30N 47°45' W 122°32'4 8.1
2017-May-23 17:00N 47°42' W 122°27'3 6.1
2017-May-23 16:30N 47°40' W 122°24'1 1.7
2017-May-23 16:00N 47°40' W 122°23'0 0.2
2017-May-23 15:29N 47°40' W 122°23'0 0.0
2017-May-23 15:00N 47°40' W 122°23'0 0.0
2017-May-23 14:00N 47°40' W 122°23'0 0.0
2017-May-23 13:30N 47°40' W 122°23'0 0.0
2017-May-23 13:00N 47°40' W 122°23'0 0.0
2017-May-23 12:30N 47°40' W 122°23'0 0.0
2017-May-23 12:00N 47°40' W 122°23'0 0.0
2017-May-23 11:30N 47°40' W 122°23'0 0.0
2017-May-23 11:00N 47°40' W 122°23'0 0.0
2017-May-23 10:30N 47°40' W 122°23'0 0.0
2017-May-23 10:00N 47°40' W 122°23'0 0.0
2017-May-23 09:30N 47°40' W 122°23'0 0.0
2017-May-23 09:00N 47°40' W 122°23'0 0.0
2017-May-23 08:30N 47°40' W 122°23'0 0.0
2017-May-23 08:00N 47°40' W 122°23'0 0.0
2017-May-23 07:30N 47°40' W 122°23'0 0.0
2017-May-23 07:00N 47°40' W 122°23'0 0.0
2017-May-23 06:30N 47°40' W 122°23'0 0.0
2017-May-23 06:00N 47°40' W 122°23'0 0.0
2017-May-23 05:30N 47°40' W 122°23'0 0.0
2017-May-23 04:57N 47°40' W 122°23'0 0.0
2017-May-23 04:30N 47°40' W 122°23'0 0.0
2017-May-23 04:00N 47°40' W 122°23'0 0.0
2017-May-23 03:30N 47°40' W 122°23'0 0.0
2017-May-23 03:00N 47°40' W 122°23'0 0.0
2017-May-23 02:30N 47°40' W 122°23'0 0.0
2017-May-23 02:00N 47°40' W 122°23'0 0.0
2017-May-23 01:30N 47°40' W 122°23'0 0.0
2017-May-23 01:00N 47°40' W 122°23'0 0.0
2017-May-23 00:30N 47°40' W 122°23'0 0.0
2017-May-23 00:00N 47°40' W 122°23'0 0.0
2017-May-22 23:24N 47°40' W 122°23'0 0.0
2017-May-22 22:57N 47°40' W 122°23'0 0.0
2017-May-22 22:30N 47°40' W 122°23'0 0.0
2017-May-22 22:00N 47°40' W 122°23'0 0.0
2017-May-22 21:30N 47°40' W 122°23'0 0.0
2017-May-22 21:00N 47°40' W 122°23'0 0.0
2017-May-22 20:30N 47°40' W 122°23'0 0.0
2017-May-22 20:00N 47°40' W 122°23'0 0.0
2017-May-22 19:30N 47°40' W 122°23'0 0.0
2017-May-22 19:00N 47°40' W 122°23'0 0.0
2017-May-22 18:30N 47°40' W 122°23'0 0.0
2017-May-22 18:00N 47°40' W 122°23'0 0.0
2017-May-22 17:27N 47°40' W 122°23'0 0.0
2017-May-22 17:00N 47°40' W 122°23'0 0.0
2017-May-22 16:30N 47°40' W 122°23'0 0.0
2017-May-22 16:00N 47°40' W 122°23'0 0.0
2017-May-22 15:30N 47°40' W 122°23'0 0.0
2017-May-22 15:00N 47°40' W 122°23'0 0.0
2017-May-22 14:00N 47°40' W 122°23'0 0.0
2017-May-22 13:30N 47°40' W 122°23'0 0.0
2017-May-22 13:00N 47°40' W 122°23'0 0.0
2017-May-22 12:30N 47°40' W 122°23'0 0.0
2017-May-22 12:00N 47°40' W 122°23'0 0.0
2017-May-22 11:30N 47°40' W 122°23'0 0.0
2017-May-22 11:00N 47°40' W 122°23'0 0.0
2017-May-22 10:30N 47°40' W 122°23'0 0.0
2017-May-22 10:00N 47°40' W 122°23'0 0.0
2017-May-22 09:30N 47°40' W 122°23'0 0.0
2017-May-22 09:00N 47°40' W 122°23'0 0.0
2017-May-22 08:30N 47°40' W 122°23'0 0.0
2017-May-22 07:54N 47°40' W 122°23'0 0.0
2017-May-22 07:30N 47°40' W 122°23'0 0.0
2017-May-22 07:00N 47°40' W 122°23'0 0.0
2017-May-22 06:30N 47°40' W 122°23'0 0.0
2017-May-22 06:00N 47°40' W 122°23'0 0.0
2017-May-22 05:30N 47°40' W 122°23'0 0.0
2017-May-22 05:00N 47°40' W 122°23'0 0.0
2017-May-22 04:30N 47°40' W 122°23'0 0.0
2017-May-22 04:00N 47°40' W 122°23'0 0.0
2017-May-22 03:30N 47°40' W 122°23'0 0.0
2017-May-22 03:00N 47°40' W 122°23'0 0.0
2017-May-22 02:30N 47°40' W 122°23'0 0.0
2017-May-22 02:00N 47°40' W 122°23'0 0.0
2017-May-22 01:30N 47°40' W 122°23'0 0.0
2017-May-22 01:00N 47°40' W 122°23'0 0.0
2017-May-22 00:30N 47°40' W 122°23'0 0.0
2017-May-22 00:00N 47°40' W 122°23'0 0.0
2017-May-21 23:30N 47°40' W 122°23'0 0.0
2017-May-21 23:00N 47°40' W 122°23'0 0.0
2017-May-21 22:30N 47°40' W 122°23'0 0.0
2017-May-21 22:00N 47°40' W 122°23'0 0.0
2017-May-21 21:30N 47°40' W 122°23'0 0.0
2017-May-21 21:00N 47°40' W 122°23'0 0.0
2017-May-21 20:30N 47°40' W 122°23'0 0.0
2017-May-21 20:00N 47°40' W 122°23'0 0.0
2017-May-21 19:30N 47°40' W 122°23'0 0.0
2017-May-21 19:00N 47°40' W 122°23'0 0.0
2017-May-21 18:30N 47°40' W 122°23'0 0.0
2017-May-21 18:00N 47°40' W 122°23'0 0.0
2017-May-21 17:30N 47°40' W 122°23'0 0.0
2017-May-21 17:00N 47°40' W 122°23'0 0.0
2017-May-21 16:30N 47°40' W 122°23'0 0.0
2017-May-21 16:00N 47°40' W 122°23'0 0.0
2017-May-21 15:30N 47°40' W 122°23'0 0.0
2017-May-21 14:57N 47°40' W 122°23'0 0.0
2017-May-21 14:30N 47°40' W 122°23'0 0.0
2017-May-21 13:30N 47°40' W 122°23'0 0.0
2017-May-21 12:57N 47°40' W 122°23'0 0.0
2017-May-21 12:30N 47°40' W 122°23'0 0.0
2017-May-21 12:00N 47°40' W 122°23'0 0.0
2017-May-21 11:27N 47°40' W 122°23'0 0.0
2017-May-21 11:00N 47°40' W 122°23'0 0.0
2017-May-21 10:30N 47°40' W 122°23'0 0.0
2017-May-21 10:00N 47°40' W 122°23'0 0.0
2017-May-21 09:30N 47°40' W 122°23'0 0.0
2017-May-21 09:00N 47°40' W 122°23'0 0.0
2017-May-21 08:30N 47°40' W 122°23'0 0.0
2017-May-21 08:00N 47°40' W 122°23'0 0.0
2017-May-21 07:30N 47°40' W 122°23'0 0.0
2017-May-21 06:54N 47°40' W 122°23'0 0.0
2017-May-21 06:30N 47°40' W 122°23'0 0.0
2017-May-21 06:00N 47°40' W 122°23'0 0.0
2017-May-21 05:30N 47°40' W 122°23'0 0.0
2017-May-21 05:00N 47°40' W 122°23'0 0.0
2017-May-21 04:30N 47°40' W 122°23'0 0.0
2017-May-21 04:00N 47°40' W 122°23'0 0.0
2017-May-21 03:30N 47°40' W 122°23'0 0.0
2017-May-21 03:00N 47°40' W 122°23'0 0.0
2017-May-21 02:30N 47°40' W 122°23'0 0.0
2017-May-21 02:00N 47°40' W 122°23'0 0.0
2017-May-21 01:30N 47°40' W 122°23'0 0.0
2017-May-21 01:00N 47°40' W 122°23'0 0.0
2017-May-21 00:27N 47°40' W 122°23'0 0.0
2017-May-21 00:00N 47°40' W 122°23'0 0.0
2017-May-20 23:30N 47°40' W 122°23'0 0.0
2017-May-20 23:00N 47°40' W 122°23'0 0.0
2017-May-20 22:30N 47°40' W 122°23'0 0.0
2017-May-20 22:00N 47°40' W 122°23'0 0.0
2017-May-20 21:30N 47°40' W 122°23'0 0.0
2017-May-20 21:00N 47°40' W 122°23'0 0.0
2017-May-20 20:30N 47°40' W 122°23'0 0.0
2017-May-20 20:00N 47°40' W 122°23'0 0.0
2017-May-20 19:30N 47°40' W 122°23'0 0.0
2017-May-20 19:00N 47°40' W 122°23'0 0.0
2017-May-20 18:30N 47°40' W 122°23'0 0.0
2017-May-20 18:00N 47°40' W 122°23'0 0.0
2017-May-20 17:30N 47°40' W 122°23'0 0.0
2017-May-20 17:00N 47°40' W 122°23'0 0.0
2017-May-20 16:30N 47°40' W 122°23'0 0.0
2017-May-20 16:00N 47°40' W 122°23'0 0.0
2017-May-20 15:30N 47°40' W 122°23'0 0.0
2017-May-20 15:00N 47°40' W 122°23'0 0.0
2017-May-20 14:30N 47°40' W 122°23'0 0.0
2017-May-20 13:30N 47°40' W 122°23'0 0.0
2017-May-20 13:00N 47°40' W 122°23'0 0.0
2017-May-20 12:30N 47°40' W 122°23'0 0.0
2017-May-20 12:00N 47°40' W 122°23'0 0.0
2017-May-20 11:30N 47°40' W 122°23'0 0.0
2017-May-20 11:00N 47°40' W 122°23'0 0.0
2017-May-20 10:30N 47°40' W 122°23'0 0.0
2017-May-20 10:00N 47°40' W 122°23'0 0.0
2017-May-20 09:30N 47°40' W 122°23'0 0.0
2017-May-20 09:00N 47°40' W 122°23'0 0.0
2017-May-20 08:30N 47°40' W 122°23'0 0.0
2017-May-20 08:00N 47°40' W 122°23'0 0.0
2017-May-20 07:30N 47°40' W 122°23'0 0.0
2017-May-20 07:00N 47°40' W 122°23'0 0.0
2017-May-20 06:30N 47°40' W 122°23'0 0.0
2017-May-20 06:00N 47°40' W 122°23'0 0.0
2017-May-20 05:30N 47°40' W 122°23'0 0.0
2017-May-20 05:00N 47°40' W 122°23'0 0.0
2017-May-20 04:30N 47°40' W 122°23'0 0.0
2017-May-20 04:00N 47°40' W 122°23'0 0.0
2017-May-20 03:30N 47°40' W 122°23'0 0.0
2017-May-20 03:00N 47°40' W 122°23'0 0.0
2017-May-20 02:30N 47°40' W 122°23'0 0.0
2017-May-20 02:00N 47°40' W 122°23'0 0.0
2017-May-20 01:30N 47°40' W 122°23'0 0.0
2017-May-20 01:00N 47°40' W 122°23'0 0.0
2017-May-20 00:30N 47°40' W 122°23'0 0.0
2017-May-20 00:00N 47°40' W 122°23'0 0.0
2017-May-19 23:30N 47°40' W 122°23'0 0.0
2017-May-19 23:00N 47°40' W 122°23'0 0.0
2017-May-19 22:30N 47°40' W 122°23'0 0.0
2017-May-19 22:00N 47°40' W 122°23'0 0.0
2017-May-19 21:24N 47°40' W 122°23'0 0.0
2017-May-19 21:00N 47°40' W 122°23'0 0.0
2017-May-19 20:30N 47°40' W 122°23'0 0.0
2017-May-19 20:00N 47°40' W 122°23'0 0.0
2017-May-19 19:30N 47°40' W 122°23'0 0.0
2017-May-19 19:00N 47°40' W 122°23'0 0.0
2017-May-19 18:30N 47°40' W 122°23'0 0.0
2017-May-19 18:00N 47°40' W 122°23'0 0.0
2017-May-19 17:30N 47°40' W 122°23'0 0.0
2017-May-19 17:00N 47°40' W 122°23'0 0.0
2017-May-19 16:27N 47°40' W 122°23'0 0.0
2017-May-19 16:00N 47°40' W 122°23'0 0.0
2017-May-19 15:30N 47°40' W 122°23'0 0.0
2017-May-19 15:00N 47°40' W 122°23'0 0.0
2017-May-19 14:00N 47°40' W 122°23'0 0.0
2017-May-19 13:30N 47°40' W 122°23'0 0.0
2017-May-19 13:00N 47°40' W 122°23'0 0.0
2017-May-19 12:30N 47°40' W 122°23'0 0.0
2017-May-19 12:00N 47°40' W 122°23'0 0.0
2017-May-19 11:30N 47°40' W 122°23'0 0.0
2017-May-19 11:00N 47°40' W 122°23'0 0.0
2017-May-19 10:30N 47°40' W 122°23'0 0.0
2017-May-19 10:00N 47°40' W 122°23'0 0.0
2017-May-19 09:30N 47°40' W 122°23'0 0.0
2017-May-19 09:00N 47°40' W 122°23'0 0.0
2017-May-19 08:30N 47°40' W 122°23'0 0.0
2017-May-19 08:00N 47°40' W 122°23'0 0.0
2017-May-19 07:30N 47°40' W 122°23'0 0.0
2017-May-19 06:57N 47°40' W 122°23'0 0.0
2017-May-19 06:30N 47°40' W 122°23'0 0.0
2017-May-19 06:00N 47°40' W 122°23'0 0.0
2017-May-19 05:30N 47°40' W 122°23'0 0.0
2017-May-19 05:00N 47°40' W 122°23'0 0.0
2017-May-19 04:30N 47°40' W 122°23'0 0.0
2017-May-19 04:00N 47°40' W 122°23'0 0.0
2017-May-19 03:30N 47°40' W 122°23'0 0.0
2017-May-19 03:00N 47°40' W 122°23'0 0.0
2017-May-19 02:30N 47°40' W 122°23'0 0.0
2017-May-19 02:00N 47°40' W 122°23'0 0.0
2017-May-19 01:30N 47°40' W 122°23'0 0.0
2017-May-19 01:00N 47°40' W 122°23'0 0.0
2017-May-19 00:30N 47°40' W 122°23'0 0.0
2017-May-19 00:00N 47°40' W 122°23'1 2.1
2017-May-18 23:30N 47°40' W 122°24'1 3.0
2017-May-18 23:00N 47°40' W 122°26'611.3
2017-May-18 22:30N 47°35' W 122°26'4 8.8
2017-May-18 22:00N 47°34' W 122°32'4 8.6
2017-May-18 21:29N 47°33' W 122°38'0 0.2
2017-May-18 21:00N 47°33' W 122°38'0 0.1
2017-May-18 20:30N 47°33' W 122°38'0 0.3
2017-May-18 20:00N 47°33' W 122°38'0 0.0
2017-May-18 18:22N 47°33' W 122°38'2 5.1
2017-May-18 18:01N 47°34' W 122°36'3 6.4
2017-May-18 17:31N 47°34' W 122°32'4 8.5
2017-May-18 17:00N 47°35' W 122°26'5 9.3
2017-May-18 16:30N 47°40' W 122°27'2 4.5
2017-May-18 16:00N 47°40' W 122°23'1 1.3
2017-May-18 15:29N 47°40' W 122°23'0 0.0
2017-May-18 14:59N 47°40' W 122°23'0 0.0
2017-May-18 13:58N 47°40' W 122°23'0 0.0
2017-May-18 13:28N 47°40' W 122°23'0 0.0
2017-May-18 12:58N 47°40' W 122°23'0 0.0
2017-May-18 12:28N 47°40' W 122°23'0 0.0
2017-May-18 11:58N 47°40' W 122°23'0 0.0
2017-May-18 11:28N 47°40' W 122°23'0 0.0
2017-May-18 10:58N 47°40' W 122°23'0 0.0
2017-May-18 10:28N 47°40' W 122°23'0 0.0
2017-May-18 09:58N 47°40' W 122°23'0 0.0
2017-May-18 09:28N 47°40' W 122°23'0 0.0
2017-May-18 08:58N 47°40' W 122°23'0 0.0
2017-May-18 08:28N 47°40' W 122°23'0 0.0
2017-May-18 07:58N 47°40' W 122°23'0 0.0
2017-May-18 07:28N 47°40' W 122°23'0 0.0
2017-May-18 06:58N 47°40' W 122°23'0 0.0
2017-May-18 06:28N 47°40' W 122°23'0 0.0
2017-May-18 05:58N 47°40' W 122°23'0 0.0
2017-May-18 05:28N 47°40' W 122°23'0 0.0
2017-May-18 04:58N 47°40' W 122°23'0 0.0
2017-May-18 04:28N 47°40' W 122°23'0 0.0
2017-May-18 03:58N 47°40' W 122°23'0 0.0
2017-May-18 03:28N 47°40' W 122°23'0 0.0
2017-May-18 02:58N 47°40' W 122°23'0 0.0
2017-May-18 02:28N 47°40' W 122°23'0 0.0
2017-May-18 01:58N 47°40' W 122°23'0 0.0
2017-May-18 01:28N 47°40' W 122°23'0 0.0
2017-May-18 00:58N 47°40' W 122°23'0 0.0
2017-May-18 00:28N 47°40' W 122°23'0 0.0
2017-May-17 23:58N 47°40' W 122°23'0 0.0
2017-May-17 23:28N 47°40' W 122°23'0 0.0
2017-May-17 22:58N 47°40' W 122°23'0 0.0
2017-May-17 22:28N 47°40' W 122°23'0 0.0
2017-May-17 21:58N 47°40' W 122°23'0 0.0
2017-May-17 21:28N 47°40' W 122°23'0 0.0
2017-May-17 20:58N 47°40' W 122°23'0 0.0
2017-May-17 20:28N 47°40' W 122°23'0 0.0
2017-May-17 19:58N 47°40' W 122°23'0 0.0
2017-May-17 19:28N 47°40' W 122°23'0 0.0
2017-May-17 18:58N 47°40' W 122°23'0 0.0
2017-May-17 18:25N 47°40' W 122°23'0 0.0
2017-May-17 17:58N 47°40' W 122°23'0 0.0
2017-May-17 17:28N 47°40' W 122°23'0 0.0
2017-May-17 16:58N 47°40' W 122°23'0 0.0
2017-May-17 16:28N 47°40' W 122°23'0 0.0
2017-May-17 15:58N 47°40' W 122°23'0 0.0
2017-May-17 15:28N 47°40' W 122°23'0 0.0
2017-May-17 14:58N 47°40' W 122°23'0 0.0
2017-May-17 13:58N 47°40' W 122°23'0 0.0
2017-May-17 13:28N 47°40' W 122°23'0 0.0
2017-May-17 12:55N 47°40' W 122°23'0 0.0
2017-May-17 12:19N 47°40' W 122°23'0 0.0
2017-May-17 11:55N 47°40' W 122°23'0 0.0
2017-May-17 11:25N 47°40' W 122°23'0 0.0
2017-May-17 10:55N 47°40' W 122°23'0 0.0
2017-May-17 10:25N 47°40' W 122°23'0 0.0
2017-May-17 09:58N 47°40' W 122°23'0 0.0
2017-May-17 09:28N 47°40' W 122°23'0 0.0
2017-May-17 08:58N 47°40' W 122°23'0 0.0
2017-May-17 08:28N 47°40' W 122°23'0 0.0
2017-May-17 07:55N 47°40' W 122°23'0 0.0
2017-May-17 07:25N 47°40' W 122°23'0 0.0
2017-May-17 06:55N 47°40' W 122°23'0 0.0
2017-May-17 06:28N 47°40' W 122°23'0 0.0
2017-May-17 05:58N 47°40' W 122°23'0 0.0
2017-May-17 05:25N 47°40' W 122°23'0 0.0
2017-May-17 04:52N 47°40' W 122°23'0 0.0
2017-May-17 04:28N 47°40' W 122°23'0 0.0
2017-May-17 03:58N 47°40' W 122°23'0 0.0
2017-May-17 03:28N 47°40' W 122°23'0 0.0
2017-May-17 02:58N 47°40' W 122°23'0 0.0
2017-May-17 02:28N 47°40' W 122°23'1 1.1
2017-May-17 02:00N 47°40' W 122°23'1 1.5
2017-May-17 01:30N 47°40' W 122°24'1 1.9
2017-May-17 01:00N 47°41' W 122°25'611.3
2017-May-17 00:30N 47°43' W 122°33'2 4.6
2017-May-17 00:00N 47°41' W 122°35'5 9.9
2017-May-16 23:31N 47°37' W 122°35'4 0.9
2017-May-16 18:52N 47°33' W 122°38'0 1.0
2017-May-16 18:30N 47°33' W 122°38'4 8.6
2017-May-16 18:01N 47°37' W 122°35'610.2
2017-May-16 17:25N 47°43' W 122°34'3 7.4
2017-May-16 17:01N 47°43' W 122°29'4 8.5
2017-May-16 16:30N 47°40' W 122°24'2 3.1
2017-May-16 16:00N 47°40' W 122°22'0 0.0
2017-May-16 15:30N 47°40' W 122°22'0 0.0
2017-May-16 15:00N 47°40' W 122°22'0 0.0
2017-May-16 14:30N 47°40' W 122°22'0 0.0
2017-May-16 13:30N 47°40' W 122°22'0 0.0
2017-May-16 13:00N 47°40' W 122°22'0 0.0
2017-May-16 12:30N 47°40' W 122°22'0 0.0
2017-May-16 12:00N 47°40' W 122°22'0 0.0
2017-May-16 11:30N 47°40' W 122°22'0 0.0
2017-May-16 11:00N 47°40' W 122°22'0 0.0
2017-May-16 10:30N 47°40' W 122°22'0 0.0
2017-May-16 10:00N 47°40' W 122°22'0 0.0
2017-May-16 09:30N 47°40' W 122°22'0 0.0
2017-May-16 09:00N 47°40' W 122°22'0 0.0
2017-May-16 08:30N 47°40' W 122°22'0 0.0
2017-May-16 08:00N 47°40' W 122°22'0 0.0
2017-May-16 07:30N 47°40' W 122°22'0 0.0
2017-May-16 07:00N 47°40' W 122°22'0 0.0
2017-May-16 06:30N 47°40' W 122°22'0 0.0
2017-May-16 06:00N 47°40' W 122°22'0 0.0
2017-May-16 05:30N 47°40' W 122°22'0 0.0
2017-May-16 05:00N 47°40' W 122°22'0 0.0
2017-May-16 04:30N 47°40' W 122°22'0 0.0
2017-May-16 04:00N 47°40' W 122°22'0 0.0
2017-May-16 03:30N 47°40' W 122°22'0 0.0
2017-May-16 03:00N 47°40' W 122°22'0 0.0
2017-May-16 02:30N 47°40' W 122°22'0 0.0
2017-May-16 02:00N 47°40' W 122°22'0 0.0
2017-May-16 01:30N 47°40' W 122°22'0 0.0
2017-May-16 01:00N 47°40' W 122°22'0 0.0
2017-May-16 00:30N 47°40' W 122°22'0 0.0
2017-May-16 00:00N 47°40' W 122°22'0 0.0
2017-May-15 23:30N 47°40' W 122°22'0 0.0
2017-May-15 23:00N 47°40' W 122°22'0 0.0
2017-May-15 22:30N 47°40' W 122°22'0 0.0
2017-May-15 22:00N 47°40' W 122°22'0 0.1
2017-May-15 21:30N 47°40' W 122°23'0 0.1
2017-May-15 21:00N 47°40' W 122°22'0 0.0
2017-May-15 20:30N 47°40' W 122°22'0 0.0
2017-May-15 20:00N 47°40' W 122°22'0 0.0
2017-May-15 19:30N 47°40' W 122°22'0 0.0
2017-May-15 19:00N 47°40' W 122°22'0 0.0
2017-May-15 18:30N 47°40' W 122°22'0 0.0
2017-May-15 18:00N 47°40' W 122°22'0 0.0
2017-May-15 17:30N 47°40' W 122°22'0 0.0
2017-May-15 17:00N 47°40' W 122°22'0 0.0
2017-May-15 16:30N 47°40' W 122°22'0 0.0
2017-May-15 16:00N 47°40' W 122°22'0 0.0
2017-May-15 15:30N 47°40' W 122°22'0 0.0
2017-May-15 15:00N 47°40' W 122°22'0 0.0
2017-May-15 14:00N 47°40' W 122°22'0 0.0
2017-May-15 13:30N 47°40' W 122°22'0 0.0
2017-May-15 13:00N 47°40' W 122°22'0 0.0
2017-May-15 12:30N 47°40' W 122°22'0 0.0
2017-May-15 12:00N 47°40' W 122°22'0 0.0
2017-May-15 11:30N 47°40' W 122°22'0 0.0
2017-May-15 11:00N 47°40' W 122°22'0 0.0
2017-May-15 10:30N 47°40' W 122°22'0 0.0
2017-May-15 10:00N 47°40' W 122°22'0 0.0
2017-May-15 09:30N 47°40' W 122°22'0 0.1
2017-May-15 09:00N 47°40' W 122°23'0 0.1
2017-May-15 08:30N 47°40' W 122°22'0 0.0
2017-May-15 08:00N 47°40' W 122°22'0 0.0
2017-May-15 07:30N 47°40' W 122°22'0 0.0
2017-May-15 07:00N 47°40' W 122°22'0 0.0
2017-May-15 06:30N 47°40' W 122°22'0 0.0
2017-May-15 06:00N 47°40' W 122°22'0 0.0
2017-May-15 05:30N 47°40' W 122°22'0 0.0
2017-May-15 05:00N 47°40' W 122°22'0 0.0
2017-May-15 04:30N 47°40' W 122°22'0 0.0
2017-May-15 04:00N 47°40' W 122°22'0 0.0
2017-May-15 03:30N 47°40' W 122°22'0 0.0
2017-May-15 03:00N 47°40' W 122°22'0 0.0
2017-May-15 02:30N 47°40' W 122°22'0 0.0
2017-May-15 02:00N 47°40' W 122°22'0 0.0
2017-May-15 01:30N 47°40' W 122°22'0 0.0
2017-May-15 01:00N 47°40' W 122°22'0 0.0
2017-May-15 00:30N 47°40' W 122°22'0 0.0
2017-May-15 00:00N 47°40' W 122°22'0 0.0
2017-May-14 23:30N 47°40' W 122°22'0 0.0
2017-May-14 23:00N 47°40' W 122°22'0 0.0
2017-May-14 22:30N 47°40' W 122°22'0 0.0
2017-May-14 22:00N 47°40' W 122°22'0 0.0
2017-May-14 21:30N 47°40' W 122°22'0 0.1
2017-May-14 21:00N 47°40' W 122°23'0 0.1
2017-May-14 20:30N 47°40' W 122°22'0 0.0
2017-May-14 20:00N 47°40' W 122°22'0 0.0
2017-May-14 19:30N 47°40' W 122°22'0 0.0
2017-May-14 19:00N 47°40' W 122°22'0 0.0
2017-May-14 18:30N 47°40' W 122°22'0 0.0
2017-May-14 18:00N 47°40' W 122°22'0 0.0
2017-May-14 17:30N 47°40' W 122°22'0 0.0
2017-May-14 17:00N 47°40' W 122°22'0 0.0
2017-May-14 16:30N 47°40' W 122°22'0 0.1
2017-May-14 16:00N 47°40' W 122°23'0 0.1
2017-May-14 15:30N 47°40' W 122°22'0 0.0
2017-May-14 15:00N 47°40' W 122°22'0 0.1
2017-May-14 14:30N 47°40' W 122°23'0 0.0
2017-May-14 13:30N 47°40' W 122°22'0 0.1
2017-May-14 13:01N 47°40' W 122°23'0 0.1
2017-May-14 12:30N 47°40' W 122°22'0 0.0
2017-May-14 12:00N 47°40' W 122°22'0 0.0
2017-May-14 11:30N 47°40' W 122°22'0 0.0
2017-May-14 11:00N 47°40' W 122°22'0 0.0
2017-May-14 10:30N 47°40' W 122°22'0 0.0
2017-May-14 10:00N 47°40' W 122°22'  

Dump ship's entire track history